sensor_id;sensor_type;location;lat;lon;timestamp;P1;durP1;ratioP1;P2;durP2;ratioP2
8159;SDS011;27404;52.398;9.646;2024-02-26T00:00:27;8.73;;;4.60;;
8159;SDS011;27404;52.398;9.646;2024-02-26T00:02:54;7.60;;;4.43;;
8159;SDS011;27404;52.398;9.646;2024-02-26T00:05:19;6.90;;;4.47;;
8159;SDS011;27404;52.398;9.646;2024-02-26T00:07:45;5.73;;;4.57;;
8159;SDS011;27404;52.398;9.646;2024-02-26T00:10:12;7.33;;;4.57;;
8159;SDS011;27404;52.398;9.646;2024-02-26T00:12:38;6.77;;;4.63;;
8159;SDS011;27404;52.398;9.646;2024-02-26T00:15:05;7.73;;;4.73;;
8159;SDS011;27404;52.398;9.646;2024-02-26T00:17:33;6.23;;;4.43;;
8159;SDS011;27404;52.398;9.646;2024-02-26T00:19:59;7.87;;;5.03;;
8159;SDS011;27404;52.398;9.646;2024-02-26T00:22:25;7.30;;;4.67;;
8159;SDS011;27404;52.398;9.646;2024-02-26T00:24:51;6.60;;;4.90;;
8159;SDS011;27404;52.398;9.646;2024-02-26T00:27:16;6.57;;;4.40;;
8159;SDS011;27404;52.398;9.646;2024-02-26T00:29:42;6.27;;;4.63;;
8159;SDS011;27404;52.398;9.646;2024-02-26T00:32:07;6.70;;;4.60;;
8159;SDS011;27404;52.398;9.646;2024-02-26T00:34:33;7.10;;;4.40;;
8159;SDS011;27404;52.398;9.646;2024-02-26T00:36:58;8.60;;;5.53;;
8159;SDS011;27404;52.398;9.646;2024-02-26T00:39:24;8.87;;;5.63;;
8159;SDS011;27404;52.398;9.646;2024-02-26T00:41:49;6.97;;;4.97;;
8159;SDS011;27404;52.398;9.646;2024-02-26T00:44:16;7.13;;;4.97;;
8159;SDS011;27404;52.398;9.646;2024-02-26T00:46:42;8.00;;;5.07;;
8159;SDS011;27404;52.398;9.646;2024-02-26T00:49:07;7.47;;;4.90;;
8159;SDS011;27404;52.398;9.646;2024-02-26T00:51:33;7.50;;;4.67;;
8159;SDS011;27404;52.398;9.646;2024-02-26T00:53:58;7.23;;;5.23;;
8159;SDS011;27404;52.398;9.646;2024-02-26T00:56:24;6.97;;;4.97;;
8159;SDS011;27404;52.398;9.646;2024-02-26T00:58:49;7.37;;;5.03;;
8159;SDS011;27404;52.398;9.646;2024-02-26T01:01:15;7.63;;;4.90;;
8159;SDS011;27404;52.398;9.646;2024-02-26T01:03:40;6.73;;;4.80;;
8159;SDS011;27404;52.398;9.646;2024-02-26T01:06:06;6.23;;;4.77;;
8159;SDS011;27404;52.398;9.646;2024-02-26T01:08:31;8.30;;;4.97;;
8159;SDS011;27404;52.398;9.646;2024-02-26T01:10:56;6.90;;;4.77;;
8159;SDS011;27404;52.398;9.646;2024-02-26T01:13:22;7.63;;;5.27;;
8159;SDS011;27404;52.398;9.646;2024-02-26T01:15:48;7.53;;;4.90;;
8159;SDS011;27404;52.398;9.646;2024-02-26T01:18:13;7.87;;;4.60;;
8159;SDS011;27404;52.398;9.646;2024-02-26T01:20:39;6.67;;;4.63;;
8159;SDS011;27404;52.398;9.646;2024-02-26T01:23:04;6.77;;;4.53;;
8159;SDS011;27404;52.398;9.646;2024-02-26T01:25:30;9.53;;;5.40;;
8159;SDS011;27404;52.398;9.646;2024-02-26T01:27:55;6.83;;;4.30;;
8159;SDS011;27404;52.398;9.646;2024-02-26T01:30:21;6.30;;;4.70;;
8159;SDS011;27404;52.398;9.646;2024-02-26T01:32:46;7.87;;;4.77;;
8159;SDS011;27404;52.398;9.646;2024-02-26T01:35:12;7.73;;;4.87;;
8159;SDS011;27404;52.398;9.646;2024-02-26T01:37:37;9.03;;;5.53;;
8159;SDS011;27404;52.398;9.646;2024-02-26T01:40:03;9.67;;;5.17;;
8159;SDS011;27404;52.398;9.646;2024-02-26T01:42:29;12.17;;;5.60;;
8159;SDS011;27404;52.398;9.646;2024-02-26T01:44:57;9.93;;;5.03;;
8159;SDS011;27404;52.398;9.646;2024-02-26T01:47:23;8.10;;;5.27;;
8159;SDS011;27404;52.398;9.646;2024-02-26T01:49:48;10.60;;;5.10;;
8159;SDS011;27404;52.398;9.646;2024-02-26T01:52:14;8.73;;;4.70;;
8159;SDS011;27404;52.398;9.646;2024-02-26T01:54:40;9.10;;;4.77;;
8159;SDS011;27404;52.398;9.646;2024-02-26T01:57:10;7.90;;;4.97;;
8159;SDS011;27404;52.398;9.646;2024-02-26T01:59:37;7.67;;;5.10;;
8159;SDS011;27404;52.398;9.646;2024-02-26T02:02:05;9.13;;;4.90;;
8159;SDS011;27404;52.398;9.646;2024-02-26T02:04:34;8.63;;;4.93;;
8159;SDS011;27404;52.398;9.646;2024-02-26T02:07:00;7.90;;;5.00;;
8159;SDS011;27404;52.398;9.646;2024-02-26T02:09:27;9.60;;;5.27;;
8159;SDS011;27404;52.398;9.646;2024-02-26T02:11:53;7.40;;;4.83;;
8159;SDS011;27404;52.398;9.646;2024-02-26T02:14:19;7.37;;;4.53;;
8159;SDS011;27404;52.398;9.646;2024-02-26T02:16:44;8.43;;;4.43;;
8159;SDS011;27404;52.398;9.646;2024-02-26T02:19:09;6.53;;;4.30;;
8159;SDS011;27404;52.398;9.646;2024-02-26T02:21:35;7.87;;;4.40;;
8159;SDS011;27404;52.398;9.646;2024-02-26T02:24:00;6.80;;;4.13;;
8159;SDS011;27404;52.398;9.646;2024-02-26T02:26:26;6.30;;;3.73;;
8159;SDS011;27404;52.398;9.646;2024-02-26T02:28:51;7.70;;;4.70;;
8159;SDS011;27404;52.398;9.646;2024-02-26T02:31:18;6.97;;;4.07;;
8159;SDS011;27404;52.398;9.646;2024-02-26T02:33:43;5.27;;;3.47;;
8159;SDS011;27404;52.398;9.646;2024-02-26T02:36:09;7.90;;;4.20;;
8159;SDS011;27404;52.398;9.646;2024-02-26T02:38:38;6.30;;;3.90;;
8159;SDS011;27404;52.398;9.646;2024-02-26T02:41:15;6.27;;;3.40;;
8159;SDS011;27404;52.398;9.646;2024-02-26T02:43:40;5.13;;;3.67;;
8159;SDS011;27404;52.398;9.646;2024-02-26T02:46:06;5.53;;;3.70;;
8159;SDS011;27404;52.398;9.646;2024-02-26T02:48:31;8.30;;;3.63;;
8159;SDS011;27404;52.398;9.646;2024-02-26T02:50:56;6.90;;;3.90;;
8159;SDS011;27404;52.398;9.646;2024-02-26T02:53:22;5.93;;;3.60;;
8159;SDS011;27404;52.398;9.646;2024-02-26T02:55:47;5.60;;;3.40;;
8159;SDS011;27404;52.398;9.646;2024-02-26T02:58:13;8.07;;;3.80;;
8159;SDS011;27404;52.398;9.646;2024-02-26T03:00:38;7.33;;;4.40;;
8159;SDS011;27404;52.398;9.646;2024-02-26T03:03:04;5.73;;;3.57;;
8159;SDS011;27404;52.398;9.646;2024-02-26T03:05:29;9.00;;;3.47;;
8159;SDS011;27404;52.398;9.646;2024-02-26T03:07:55;6.70;;;3.83;;
8159;SDS011;27404;52.398;9.646;2024-02-26T03:10:20;7.80;;;3.63;;
8159;SDS011;27404;52.398;9.646;2024-02-26T03:12:46;6.17;;;3.43;;
8159;SDS011;27404;52.398;9.646;2024-02-26T03:15:11;6.40;;;3.83;;
8159;SDS011;27404;52.398;9.646;2024-02-26T03:17:37;6.70;;;3.80;;
8159;SDS011;27404;52.398;9.646;2024-02-26T03:20:02;6.70;;;3.47;;
8159;SDS011;27404;52.398;9.646;2024-02-26T03:22:30;5.50;;;3.47;;
8159;SDS011;27404;52.398;9.646;2024-02-26T03:24:55;4.37;;;3.43;;
8159;SDS011;27404;52.398;9.646;2024-02-26T03:27:21;4.80;;;3.37;;
8159;SDS011;27404;52.398;9.646;2024-02-26T03:29:46;5.60;;;3.37;;
8159;SDS011;27404;52.398;9.646;2024-02-26T03:32:13;4.23;;;3.00;;
8159;SDS011;27404;52.398;9.646;2024-02-26T03:34:38;4.80;;;3.40;;
8159;SDS011;27404;52.398;9.646;2024-02-26T03:37:07;4.67;;;3.30;;
8159;SDS011;27404;52.398;9.646;2024-02-26T03:39:35;4.90;;;3.30;;
8159;SDS011;27404;52.398;9.646;2024-02-26T03:42:00;4.70;;;3.33;;
8159;SDS011;27404;52.398;9.646;2024-02-26T03:44:26;4.80;;;3.33;;
8159;SDS011;27404;52.398;9.646;2024-02-26T03:46:51;6.57;;;3.13;;
8159;SDS011;27404;52.398;9.646;2024-02-26T03:49:17;4.57;;;2.90;;
8159;SDS011;27404;52.398;9.646;2024-02-26T03:51:43;7.57;;;3.17;;
8159;SDS011;27404;52.398;9.646;2024-02-26T03:54:08;4.30;;;3.47;;
8159;SDS011;27404;52.398;9.646;2024-02-26T03:56:33;5.57;;;3.30;;
8159;SDS011;27404;52.398;9.646;2024-02-26T03:58:59;4.80;;;3.17;;
8159;SDS011;27404;52.398;9.646;2024-02-26T04:01:26;4.37;;;3.10;;
8159;SDS011;27404;52.398;9.646;2024-02-26T04:03:52;4.63;;;3.43;;
8159;SDS011;27404;52.398;9.646;2024-02-26T04:06:17;4.43;;;3.10;;
8159;SDS011;27404;52.398;9.646;2024-02-26T04:08:45;4.40;;;2.90;;
8159;SDS011;27404;52.398;9.646;2024-02-26T04:11:11;6.67;;;2.80;;
8159;SDS011;27404;52.398;9.646;2024-02-26T04:13:37;4.73;;;3.10;;
8159;SDS011;27404;52.398;9.646;2024-02-26T04:16:04;4.50;;;2.90;;
8159;SDS011;27404;52.398;9.646;2024-02-26T04:18:30;5.37;;;3.20;;
8159;SDS011;27404;52.398;9.646;2024-02-26T04:20:57;3.60;;;2.57;;
8159;SDS011;27404;52.398;9.646;2024-02-26T04:23:22;4.67;;;3.20;;
8159;SDS011;27404;52.398;9.646;2024-02-26T04:25:48;4.27;;;2.37;;
8159;SDS011;27404;52.398;9.646;2024-02-26T04:28:14;4.93;;;2.90;;
8159;SDS011;27404;52.398;9.646;2024-02-26T04:30:39;4.40;;;3.00;;
8159;SDS011;27404;52.398;9.646;2024-02-26T04:33:05;5.63;;;2.67;;
8159;SDS011;27404;52.398;9.646;2024-02-26T04:35:31;5.47;;;3.47;;
8159;SDS011;27404;52.398;9.646;2024-02-26T04:37:56;4.47;;;2.70;;
8159;SDS011;27404;52.398;9.646;2024-02-26T04:40:22;4.27;;;2.63;;
8159;SDS011;27404;52.398;9.646;2024-02-26T04:42:49;4.83;;;3.17;;
8159;SDS011;27404;52.398;9.646;2024-02-26T04:45:14;4.40;;;3.00;;
8159;SDS011;27404;52.398;9.646;2024-02-26T04:47:40;3.90;;;2.83;;
8159;SDS011;27404;52.398;9.646;2024-02-26T04:50:05;4.90;;;3.03;;
8159;SDS011;27404;52.398;9.646;2024-02-26T04:52:31;5.93;;;3.60;;
8159;SDS011;27404;52.398;9.646;2024-02-26T04:54:57;4.77;;;3.07;;
8159;SDS011;27404;52.398;9.646;2024-02-26T04:57:24;3.90;;;2.67;;
8159;SDS011;27404;52.398;9.646;2024-02-26T04:59:51;3.77;;;2.73;;
8159;SDS011;27404;52.398;9.646;2024-02-26T05:02:17;4.17;;;3.03;;
8159;SDS011;27404;52.398;9.646;2024-02-26T05:04:42;4.80;;;2.87;;
8159;SDS011;27404;52.398;9.646;2024-02-26T05:07:08;5.73;;;3.23;;
8159;SDS011;27404;52.398;9.646;2024-02-26T05:09:34;4.90;;;3.00;;
8159;SDS011;27404;52.398;9.646;2024-02-26T05:12:00;4.53;;;2.90;;
8159;SDS011;27404;52.398;9.646;2024-02-26T05:14:25;5.47;;;2.80;;
8159;SDS011;27404;52.398;9.646;2024-02-26T05:16:51;4.40;;;2.60;;
8159;SDS011;27404;52.398;9.646;2024-02-26T05:19:16;11.67;;;3.13;;
8159;SDS011;27404;52.398;9.646;2024-02-26T05:21:42;4.83;;;2.90;;
8159;SDS011;27404;52.398;9.646;2024-02-26T05:24:09;3.83;;;2.80;;
8159;SDS011;27404;52.398;9.646;2024-02-26T05:26:35;3.50;;;2.50;;
8159;SDS011;27404;52.398;9.646;2024-02-26T05:29:00;4.67;;;2.77;;
8159;SDS011;27404;52.398;9.646;2024-02-26T05:31:26;4.97;;;2.90;;
8159;SDS011;27404;52.398;9.646;2024-02-26T05:33:52;4.90;;;2.50;;
8159;SDS011;27404;52.398;9.646;2024-02-26T05:36:20;4.23;;;2.97;;
8159;SDS011;27404;52.398;9.646;2024-02-26T05:38:47;4.93;;;2.87;;
8159;SDS011;27404;52.398;9.646;2024-02-26T05:41:16;4.37;;;2.93;;
8159;SDS011;27404;52.398;9.646;2024-02-26T05:43:45;6.03;;;3.17;;
8159;SDS011;27404;52.398;9.646;2024-02-26T05:46:10;7.70;;;3.47;;
8159;SDS011;27404;52.398;9.646;2024-02-26T05:48:36;4.07;;;3.00;;
8159;SDS011;27404;52.398;9.646;2024-02-26T05:51:01;5.77;;;3.30;;
8159;SDS011;27404;52.398;9.646;2024-02-26T05:53:27;6.00;;;2.60;;
8159;SDS011;27404;52.398;9.646;2024-02-26T05:55:52;5.67;;;2.73;;
8159;SDS011;27404;52.398;9.646;2024-02-26T05:58:17;5.00;;;2.90;;
8159;SDS011;27404;52.398;9.646;2024-02-26T06:00:43;4.63;;;2.77;;
8159;SDS011;27404;52.398;9.646;2024-02-26T06:03:08;5.67;;;3.37;;
8159;SDS011;27404;52.398;9.646;2024-02-26T06:05:34;6.30;;;3.00;;
8159;SDS011;27404;52.398;9.646;2024-02-26T06:08:00;3.97;;;2.90;;
8159;SDS011;27404;52.398;9.646;2024-02-26T06:10:26;4.00;;;2.93;;
8159;SDS011;27404;52.398;9.646;2024-02-26T06:12:51;5.70;;;3.20;;
8159;SDS011;27404;52.398;9.646;2024-02-26T06:15:16;5.17;;;3.27;;
8159;SDS011;27404;52.398;9.646;2024-02-26T06:17:42;7.70;;;2.90;;
8159;SDS011;27404;52.398;9.646;2024-02-26T06:20:07;5.43;;;3.30;;
8159;SDS011;27404;52.398;9.646;2024-02-26T06:22:38;4.53;;;3.03;;
8159;SDS011;27404;52.398;9.646;2024-02-26T06:25:07;6.13;;;3.03;;
8159;SDS011;27404;52.398;9.646;2024-02-26T06:27:33;5.47;;;3.07;;
8159;SDS011;27404;52.398;9.646;2024-02-26T06:29:58;3.90;;;2.93;;
8159;SDS011;27404;52.398;9.646;2024-02-26T06:32:23;4.30;;;3.20;;
8159;SDS011;27404;52.398;9.646;2024-02-26T06:34:49;6.80;;;3.10;;
8159;SDS011;27404;52.398;9.646;2024-02-26T06:37:14;6.17;;;3.23;;
8159;SDS011;27404;52.398;9.646;2024-02-26T06:39:40;5.63;;;3.20;;
8159;SDS011;27404;52.398;9.646;2024-02-26T06:42:06;5.50;;;3.37;;
8159;SDS011;27404;52.398;9.646;2024-02-26T06:44:33;13.70;;;4.80;;
8159;SDS011;27404;52.398;9.646;2024-02-26T06:46:59;5.60;;;3.10;;
8159;SDS011;27404;52.398;9.646;2024-02-26T06:49:25;7.57;;;3.70;;
8159;SDS011;27404;52.398;9.646;2024-02-26T06:51:50;5.17;;;3.60;;
8159;SDS011;27404;52.398;9.646;2024-02-26T06:54:16;4.47;;;3.17;;
8159;SDS011;27404;52.398;9.646;2024-02-26T06:56:41;6.17;;;4.43;;
8159;SDS011;27404;52.398;9.646;2024-02-26T06:59:07;5.87;;;3.40;;
8159;SDS011;27404;52.398;9.646;2024-02-26T07:01:32;9.90;;;3.33;;
8159;SDS011;27404;52.398;9.646;2024-02-26T07:03:58;12.90;;;8.20;;
8159;SDS011;27404;52.398;9.646;2024-02-26T07:06:23;8.57;;;5.40;;
8159;SDS011;27404;52.398;9.646;2024-02-26T07:08:49;11.60;;;5.17;;
8159;SDS011;27404;52.398;9.646;2024-02-26T07:11:14;6.93;;;4.43;;
8159;SDS011;27404;52.398;9.646;2024-02-26T07:13:39;8.37;;;5.60;;
8159;SDS011;27404;52.398;9.646;2024-02-26T07:16:05;5.20;;;3.80;;
8159;SDS011;27404;52.398;9.646;2024-02-26T07:18:31;7.10;;;4.40;;
8159;SDS011;27404;52.398;9.646;2024-02-26T07:20:57;7.23;;;4.37;;
8159;SDS011;27404;52.398;9.646;2024-02-26T07:23:22;8.07;;;5.10;;
8159;SDS011;27404;52.398;9.646;2024-02-26T07:25:48;8.07;;;3.50;;
8159;SDS011;27404;52.398;9.646;2024-02-26T07:28:15;7.07;;;4.30;;
8159;SDS011;27404;52.398;9.646;2024-02-26T07:30:41;7.57;;;4.90;;
8159;SDS011;27404;52.398;9.646;2024-02-26T07:33:06;6.07;;;3.80;;
8159;SDS011;27404;52.398;9.646;2024-02-26T07:35:32;5.47;;;3.60;;
8159;SDS011;27404;52.398;9.646;2024-02-26T07:37:58;6.90;;;3.97;;
8159;SDS011;27404;52.398;9.646;2024-02-26T07:40:24;7.40;;;3.90;;
8159;SDS011;27404;52.398;9.646;2024-02-26T07:42:49;6.57;;;3.50;;
8159;SDS011;27404;52.398;9.646;2024-02-26T07:45:15;5.47;;;3.97;;
8159;SDS011;27404;52.398;9.646;2024-02-26T07:47:40;6.20;;;4.23;;
8159;SDS011;27404;52.398;9.646;2024-02-26T07:50:07;5.10;;;3.80;;
8159;SDS011;27404;52.398;9.646;2024-02-26T07:52:33;5.93;;;4.00;;
8159;SDS011;27404;52.398;9.646;2024-02-26T07:54:59;6.80;;;4.87;;
8159;SDS011;27404;52.398;9.646;2024-02-26T07:57:24;5.80;;;4.47;;
8159;SDS011;27404;52.398;9.646;2024-02-26T07:59:50;6.53;;;4.50;;
8159;SDS011;27404;52.398;9.646;2024-02-26T08:02:16;6.37;;;4.30;;
8159;SDS011;27404;52.398;9.646;2024-02-26T08:04:41;6.37;;;4.83;;
8159;SDS011;27404;52.398;9.646;2024-02-26T08:07:07;6.47;;;4.60;;
8159;SDS011;27404;52.398;9.646;2024-02-26T08:09:32;9.67;;;4.97;;
8159;SDS011;27404;52.398;9.646;2024-02-26T08:11:58;6.33;;;4.17;;
8159;SDS011;27404;52.398;9.646;2024-02-26T08:14:24;6.17;;;3.80;;
8159;SDS011;27404;52.398;9.646;2024-02-26T08:16:49;6.63;;;4.20;;
8159;SDS011;27404;52.398;9.646;2024-02-26T08:19:15;5.03;;;3.67;;
8159;SDS011;27404;52.398;9.646;2024-02-26T08:21:41;4.77;;;4.10;;
8159;SDS011;27404;52.398;9.646;2024-02-26T08:24:06;5.23;;;3.87;;
8159;SDS011;27404;52.398;9.646;2024-02-26T08:26:32;7.30;;;3.90;;
8159;SDS011;27404;52.398;9.646;2024-02-26T08:28:57;6.87;;;4.00;;
8159;SDS011;27404;52.398;9.646;2024-02-26T08:31:23;5.33;;;3.97;;
8159;SDS011;27404;52.398;9.646;2024-02-26T08:33:49;5.90;;;3.77;;
8159;SDS011;27404;52.398;9.646;2024-02-26T08:36:14;6.57;;;3.83;;
8159;SDS011;27404;52.398;9.646;2024-02-26T08:38:39;6.17;;;4.17;;
8159;SDS011;27404;52.398;9.646;2024-02-26T08:41:05;6.67;;;3.87;;
8159;SDS011;27404;52.398;9.646;2024-02-26T08:43:30;4.67;;;3.43;;
8159;SDS011;27404;52.398;9.646;2024-02-26T08:45:56;5.93;;;3.37;;
8159;SDS011;27404;52.398;9.646;2024-02-26T08:48:22;5.83;;;3.70;;
8159;SDS011;27404;52.398;9.646;2024-02-26T08:50:48;19.77;;;9.10;;
8159;SDS011;27404;52.398;9.646;2024-02-26T08:53:13;7.60;;;4.40;;
8159;SDS011;27404;52.398;9.646;2024-02-26T08:55:39;7.40;;;4.63;;
8159;SDS011;27404;52.398;9.646;2024-02-26T08:58:05;8.40;;;4.57;;
8159;SDS011;27404;52.398;9.646;2024-02-26T09:00:30;5.80;;;3.50;;
8159;SDS011;27404;52.398;9.646;2024-02-26T09:02:56;5.17;;;3.33;;
8159;SDS011;27404;52.398;9.646;2024-02-26T09:05:21;4.80;;;3.20;;
8159;SDS011;27404;52.398;9.646;2024-02-26T09:07:47;4.17;;;3.10;;
8159;SDS011;27404;52.398;9.646;2024-02-26T09:10:12;6.57;;;2.70;;
8159;SDS011;27404;52.398;9.646;2024-02-26T09:12:38;3.23;;;2.43;;
8159;SDS011;27404;52.398;9.646;2024-02-26T09:15:05;4.30;;;3.00;;
8159;SDS011;27404;52.398;9.646;2024-02-26T09:17:32;5.65;;;3.17;;
8159;SDS011;27404;52.398;9.646;2024-02-26T09:19:57;4.43;;;2.60;;
8159;SDS011;27404;52.398;9.646;2024-02-26T09:22:22;5.73;;;3.00;;
8159;SDS011;27404;52.398;9.646;2024-02-26T09:24:48;3.93;;;2.70;;
8159;SDS011;27404;52.398;9.646;2024-02-26T09:27:15;4.57;;;3.00;;
8159;SDS011;27404;52.398;9.646;2024-02-26T09:29:41;4.57;;;2.77;;
8159;SDS011;27404;52.398;9.646;2024-02-26T09:32:07;4.00;;;2.73;;
8159;SDS011;27404;52.398;9.646;2024-02-26T09:34:32;5.87;;;3.17;;
8159;SDS011;27404;52.398;9.646;2024-02-26T09:36:58;6.57;;;3.50;;
8159;SDS011;27404;52.398;9.646;2024-02-26T09:39:24;4.63;;;2.70;;
8159;SDS011;27404;52.398;9.646;2024-02-26T09:41:50;4.17;;;2.43;;
8159;SDS011;27404;52.398;9.646;2024-02-26T09:44:18;5.57;;;2.30;;
8159;SDS011;27404;52.398;9.646;2024-02-26T09:46:47;3.30;;;2.33;;
8159;SDS011;27404;52.398;9.646;2024-02-26T09:49:15;2.87;;;2.23;;
8159;SDS011;27404;52.398;9.646;2024-02-26T09:51:40;3.60;;;2.20;;
8159;SDS011;27404;52.398;9.646;2024-02-26T09:54:07;4.07;;;2.43;;
8159;SDS011;27404;52.398;9.646;2024-02-26T09:56:34;4.10;;;2.03;;
8159;SDS011;27404;52.398;9.646;2024-02-26T09:59:01;4.40;;;2.20;;
8159;SDS011;27404;52.398;9.646;2024-02-26T10:01:29;4.93;;;1.90;;
8159;SDS011;27404;52.398;9.646;2024-02-26T10:03:58;2.60;;;1.90;;
8159;SDS011;27404;52.398;9.646;2024-02-26T10:06:27;3.20;;;2.23;;
8159;SDS011;27404;52.398;9.646;2024-02-26T10:08:53;3.70;;;2.17;;
8159;SDS011;27404;52.398;9.646;2024-02-26T10:11:19;2.90;;;2.13;;
8159;SDS011;27404;52.398;9.646;2024-02-26T10:13:45;4.20;;;2.13;;
8159;SDS011;27404;52.398;9.646;2024-02-26T10:16:11;3.77;;;2.60;;
8159;SDS011;27404;52.398;9.646;2024-02-26T10:18:46;3.13;;;2.00;;
8159;SDS011;27404;52.398;9.646;2024-02-26T10:21:16;3.23;;;2.30;;
8159;SDS011;27404;52.398;9.646;2024-02-26T10:23:45;3.10;;;2.20;;
8159;SDS011;27404;52.398;9.646;2024-02-26T10:26:12;2.30;;;1.77;;
8159;SDS011;27404;52.398;9.646;2024-02-26T10:28:39;2.33;;;1.73;;
8159;SDS011;27404;52.398;9.646;2024-02-26T10:31:05;3.17;;;2.30;;
8159;SDS011;27404;52.398;9.646;2024-02-26T10:33:34;5.13;;;2.10;;
8159;SDS011;27404;52.398;9.646;2024-02-26T10:36:06;2.60;;;1.87;;
8159;SDS011;27404;52.398;9.646;2024-02-26T10:38:33;3.50;;;2.00;;
8159;SDS011;27404;52.398;9.646;2024-02-26T10:40:59;5.50;;;2.50;;
8159;SDS011;27404;52.398;9.646;2024-02-26T10:43:27;4.60;;;2.70;;
8159;SDS011;27404;52.398;9.646;2024-02-26T10:45:56;13.77;;;6.60;;
8159;SDS011;27404;52.398;9.646;2024-02-26T10:48:22;30.70;;;12.73;;
8159;SDS011;27404;52.398;9.646;2024-02-26T10:50:47;8.00;;;4.13;;
8159;SDS011;27404;52.398;9.646;2024-02-26T10:53:17;6.07;;;2.87;;
8159;SDS011;27404;52.398;9.646;2024-02-26T10:55:51;16.10;;;6.87;;
8159;SDS011;27404;52.398;9.646;2024-02-26T10:58:21;3.53;;;2.70;;
8159;SDS011;27404;52.398;9.646;2024-02-26T11:00:47;4.30;;;2.07;;
8159;SDS011;27404;52.398;9.646;2024-02-26T11:03:15;3.60;;;2.30;;
8159;SDS011;27404;52.398;9.646;2024-02-26T11:05:42;2.87;;;1.97;;
8159;SDS011;27404;52.398;9.646;2024-02-26T11:08:10;4.40;;;2.37;;
8159;SDS011;27404;52.398;9.646;2024-02-26T11:10:36;3.63;;;2.50;;
8159;SDS011;27404;52.398;9.646;2024-02-26T11:13:03;6.27;;;2.40;;
8159;SDS011;27404;52.398;9.646;2024-02-26T11:15:31;3.10;;;2.30;;
8159;SDS011;27404;52.398;9.646;2024-02-26T11:17:58;4.10;;;2.23;;
8159;SDS011;27404;52.398;9.646;2024-02-26T11:20:28;4.80;;;2.60;;
8159;SDS011;27404;52.398;9.646;2024-02-26T11:22:56;3.27;;;2.20;;
8159;SDS011;27404;52.398;9.646;2024-02-26T11:25:22;5.10;;;2.20;;
8159;SDS011;27404;52.398;9.646;2024-02-26T11:27:50;3.93;;;2.33;;
8159;SDS011;27404;52.398;9.646;2024-02-26T11:30:19;3.03;;;2.30;;
8159;SDS011;27404;52.398;9.646;2024-02-26T11:32:45;2.97;;;2.00;;
8159;SDS011;27404;52.398;9.646;2024-02-26T11:35:11;2.80;;;2.03;;
8159;SDS011;27404;52.398;9.646;2024-02-26T11:37:40;3.67;;;2.53;;
8159;SDS011;27404;52.398;9.646;2024-02-26T11:40:09;3.53;;;2.27;;
8159;SDS011;27404;52.398;9.646;2024-02-26T11:42:43;4.60;;;2.20;;
8159;SDS011;27404;52.398;9.646;2024-02-26T11:50:43;2.80;;;1.87;;
8159;SDS011;27404;52.398;9.646;2024-02-26T11:53:24;6.03;;;2.37;;
8159;SDS011;27404;52.398;9.646;2024-02-26T11:59:36;4.27;;;2.20;;
8159;SDS011;27404;52.398;9.646;2024-02-26T12:02:00;3.53;;;2.10;;
8159;SDS011;27404;52.398;9.646;2024-02-26T12:04:26;5.20;;;2.50;;
8159;SDS011;27404;52.398;9.646;2024-02-26T12:06:57;2.87;;;2.20;;
8159;SDS011;27404;52.398;9.646;2024-02-26T12:09:32;4.13;;;2.20;;
8159;SDS011;27404;52.398;9.646;2024-02-26T12:11:59;3.30;;;2.50;;
8159;SDS011;27404;52.398;9.646;2024-02-26T12:14:26;5.73;;;2.13;;
8159;SDS011;27404;52.398;9.646;2024-02-26T12:16:52;3.70;;;2.43;;
8159;SDS011;27404;52.398;9.646;2024-02-26T12:19:18;3.70;;;2.23;;
8159;SDS011;27404;52.398;9.646;2024-02-26T12:21:43;3.57;;;2.50;;
8159;SDS011;27404;52.398;9.646;2024-02-26T12:24:13;2.47;;;1.97;;
8159;SDS011;27404;52.398;9.646;2024-02-26T12:26:41;3.97;;;2.50;;
8159;SDS011;27404;52.398;9.646;2024-02-26T12:29:07;3.00;;;2.30;;
8159;SDS011;27404;52.398;9.646;2024-02-26T12:31:33;4.07;;;2.67;;
8159;SDS011;27404;52.398;9.646;2024-02-26T12:33:59;4.77;;;2.43;;
8159;SDS011;27404;52.398;9.646;2024-02-26T12:36:25;3.67;;;2.40;;
8159;SDS011;27404;52.398;9.646;2024-02-26T12:38:51;3.63;;;2.30;;
8159;SDS011;27404;52.398;9.646;2024-02-26T12:41:17;3.17;;;2.13;;
8159;SDS011;27404;52.398;9.646;2024-02-26T12:43:43;2.97;;;2.27;;
8159;SDS011;27404;52.398;9.646;2024-02-26T12:46:08;3.80;;;2.67;;
8159;SDS011;27404;52.398;9.646;2024-02-26T12:48:34;2.67;;;1.97;;
8159;SDS011;27404;52.398;9.646;2024-02-26T12:51:00;4.80;;;2.33;;
8159;SDS011;27404;52.398;9.646;2024-02-26T12:53:26;4.00;;;2.20;;
8159;SDS011;27404;52.398;9.646;2024-02-26T12:55:52;3.30;;;2.33;;
8159;SDS011;27404;52.398;9.646;2024-02-26T12:58:21;2.77;;;1.90;;
8159;SDS011;27404;52.398;9.646;2024-02-26T13:00:52;3.87;;;2.03;;
8159;SDS011;27404;52.398;9.646;2024-02-26T13:03:19;4.30;;;2.30;;
8159;SDS011;27404;52.398;9.646;2024-02-26T13:05:46;4.23;;;2.47;;
8159;SDS011;27404;52.398;9.646;2024-02-26T13:08:20;3.87;;;2.20;;
8159;SDS011;27404;52.398;9.646;2024-02-26T13:10:46;3.90;;;2.23;;
8159;SDS011;27404;52.398;9.646;2024-02-26T13:13:16;4.37;;;2.10;;
8159;SDS011;27404;52.398;9.646;2024-02-26T13:15:45;3.27;;;2.20;;
8159;SDS011;27404;52.398;9.646;2024-02-26T13:18:11;3.20;;;2.20;;
8159;SDS011;27404;52.398;9.646;2024-02-26T13:20:41;2.60;;;2.10;;
8159;SDS011;27404;52.398;9.646;2024-02-26T13:23:07;4.03;;;2.10;;
8159;SDS011;27404;52.398;9.646;2024-02-26T13:25:36;5.17;;;2.33;;
8159;SDS011;27404;52.398;9.646;2024-02-26T13:28:25;2.93;;;2.07;;
8159;SDS011;27404;52.398;9.646;2024-02-26T13:30:55;3.83;;;2.03;;
8159;SDS011;27404;52.398;9.646;2024-02-26T13:33:22;4.40;;;2.50;;
8159;SDS011;27404;52.398;9.646;2024-02-26T13:35:48;3.20;;;2.30;;
8159;SDS011;27404;52.398;9.646;2024-02-26T13:38:14;3.83;;;2.20;;
8159;SDS011;27404;52.398;9.646;2024-02-26T13:40:39;4.27;;;2.50;;
8159;SDS011;27404;52.398;9.646;2024-02-26T13:43:05;3.23;;;2.27;;
8159;SDS011;27404;52.398;9.646;2024-02-26T13:45:34;6.97;;;3.07;;
8159;SDS011;27404;52.398;9.646;2024-02-26T13:48:01;2.73;;;2.10;;
8159;SDS011;27404;52.398;9.646;2024-02-26T13:50:28;3.37;;;2.30;;
8159;SDS011;27404;52.398;9.646;2024-02-26T13:52:54;3.30;;;1.97;;
8159;SDS011;27404;52.398;9.646;2024-02-26T13:55:21;3.70;;;2.10;;
8159;SDS011;27404;52.398;9.646;2024-02-26T13:57:48;2.63;;;2.00;;
8159;SDS011;27404;52.398;9.646;2024-02-26T14:00:14;5.93;;;1.93;;
8159;SDS011;27404;52.398;9.646;2024-02-26T14:02:39;2.97;;;1.90;;
8159;SDS011;27404;52.398;9.646;2024-02-26T14:05:05;3.50;;;2.03;;
8159;SDS011;27404;52.398;9.646;2024-02-26T14:07:31;2.70;;;2.00;;
8159;SDS011;27404;52.398;9.646;2024-02-26T14:09:57;2.77;;;1.70;;
8159;SDS011;27404;52.398;9.646;2024-02-26T14:12:23;3.40;;;2.03;;
8159;SDS011;27404;52.398;9.646;2024-02-26T14:14:49;3.13;;;1.90;;
8159;SDS011;27404;52.398;9.646;2024-02-26T14:17:14;11.90;;;2.10;;
8159;SDS011;27404;52.398;9.646;2024-02-26T14:19:40;2.87;;;1.83;;
8159;SDS011;27404;52.398;9.646;2024-02-26T14:22:10;3.33;;;1.60;;
8159;SDS011;27404;52.398;9.646;2024-02-26T14:24:36;3.93;;;1.60;;
8159;SDS011;27404;52.398;9.646;2024-02-26T14:27:02;3.63;;;1.67;;
8159;SDS011;27404;52.398;9.646;2024-02-26T14:29:27;2.50;;;1.70;;
8159;SDS011;27404;52.398;9.646;2024-02-26T14:31:53;3.23;;;1.70;;
8159;SDS011;27404;52.398;9.646;2024-02-26T14:34:18;2.50;;;1.50;;
8159;SDS011;27404;52.398;9.646;2024-02-26T14:36:44;2.43;;;1.70;;
8159;SDS011;27404;52.398;9.646;2024-02-26T14:39:10;3.13;;;1.53;;
8159;SDS011;27404;52.398;9.646;2024-02-26T14:41:38;3.70;;;1.73;;
8159;SDS011;27404;52.398;9.646;2024-02-26T14:44:04;4.20;;;1.93;;
8159;SDS011;27404;52.398;9.646;2024-02-26T14:46:30;3.13;;;1.80;;
8159;SDS011;27404;52.398;9.646;2024-02-26T14:48:55;3.67;;;1.70;;
8159;SDS011;27404;52.398;9.646;2024-02-26T14:51:24;3.63;;;2.07;;
8159;SDS011;27404;52.398;9.646;2024-02-26T14:53:49;4.37;;;1.80;;
8159;SDS011;27404;52.398;9.646;2024-02-26T14:56:15;2.57;;;1.50;;
8159;SDS011;27404;52.398;9.646;2024-02-26T14:58:40;2.37;;;1.60;;
8159;SDS011;27404;52.398;9.646;2024-02-26T15:01:06;2.80;;;1.80;;
8159;SDS011;27404;52.398;9.646;2024-02-26T15:03:32;3.87;;;1.43;;